createdAt,value
2019-01-08T00:05:19.588Z,99851.05
2019-01-08T00:07:49.222Z,99851.38
2019-01-08T00:10:18.896Z,99848.37
2019-01-08T00:12:48.568Z,99842.12
2019-01-08T00:15:18.253Z,99847.05
2019-01-08T00:17:47.992Z,99843.60
2019-01-08T00:20:17.681Z,99840.70
2019-01-08T00:22:47.383Z,99843.22
2019-01-08T00:25:17.017Z,99840.12
2019-01-08T00:27:46.775Z,99844.28
2019-01-08T00:30:16.492Z,99847.48
2019-01-08T00:32:46.114Z,99848.31
2019-01-08T00:35:15.858Z,99844.55
2019-01-08T00:37:45.555Z,99845.80
2019-01-08T00:40:15.193Z,99847.67
2019-01-08T00:42:44.777Z,99849.91
2019-01-08T00:45:14.489Z,99843.02
2019-01-08T00:47:44.100Z,99851.11
2019-01-08T00:50:13.799Z,99841.55
2019-01-08T00:52:43.461Z,99838.83
2019-01-08T00:55:13.196Z,99839.80
2019-01-08T00:57:42.855Z,99836.48
2019-01-08T01:00:12.705Z,99841.37
2019-01-08T01:02:42.298Z,99836.39
2019-01-08T01:05:11.986Z,99844.47
2019-01-08T01:07:41.961Z,99829.52
2019-01-08T01:10:11.958Z,99822.59
2019-01-08T01:12:41.951Z,99819.75
2019-01-08T01:15:12.035Z,99822.59
2019-01-08T01:17:41.978Z,99823.70
2019-01-08T01:20:12.231Z,99820.17
2019-01-08T01:22:42.265Z,99815.08
2019-01-08T01:25:12.256Z,99811.46
2019-01-08T01:27:42.276Z,99799.80
2019-01-08T01:30:11.939Z,99798.27
2019-01-08T01:32:41.566Z,99792.70
2019-01-08T01:35:11.271Z,99792.10
2019-01-08T01:37:40.923Z,99787.28
2019-01-08T01:40:10.527Z,99786.75
2019-01-08T01:42:40.199Z,99783.09
2019-01-08T01:45:09.834Z,99778.94
2019-01-08T01:47:39.486Z,99775.05
2019-01-08T01:50:09.230Z,99776.67
2019-01-08T01:52:38.854Z,99773.72
2019-01-08T01:55:08.524Z,99768.24
2019-01-08T01:57:38.292Z,99764.74
2019-01-08T02:00:08.582Z,99718.43
2019-01-08T02:02:38.243Z,99766.84
2019-01-08T02:05:07.928Z,99734.92
2019-01-08T02:07:37.566Z,99761.80
2019-01-08T02:10:07.556Z,99757.83
2019-01-08T02:12:37.184Z,99758.73
2019-01-08T02:15:07.065Z,99755.38
2019-01-08T02:17:36.783Z,99755.12
2019-01-08T02:20:06.831Z,99755.67
2019-01-08T02:22:36.482Z,99757.36
2019-01-08T02:25:06.219Z,99758.16
2019-01-08T02:27:36.069Z,99749.11
2019-01-08T02:32:42.414Z,99751.32
2019-01-08T02:35:12.103Z,99745.84
2019-01-08T02:37:42.075Z,99741.22
2019-01-08T02:40:11.702Z,99742.28
2019-01-08T02:42:41.420Z,99734.34
2019-01-08T02:45:11.093Z,99736.94
2019-01-08T02:47:40.754Z,99734.14
2019-01-08T02:50:10.561Z,99734.42
2019-01-08T02:52:40.221Z,99720.12
2019-01-08T02:55:09.886Z,99730.55
2019-01-08T02:57:39.538Z,99720.50
2019-01-08T03:00:09.332Z,99716.45
2019-01-08T03:02:39.036Z,99725.91
2019-01-08T03:05:08.777Z,99720.34
2019-01-08T03:07:38.480Z,99722.32
2019-01-08T03:10:08.380Z,99725.91
2019-01-08T03:12:38.009Z,99726.95
2019-01-08T03:15:07.787Z,99728.02
2019-01-08T03:17:37.411Z,99721.66
2019-01-08T03:20:07.486Z,99721.56
2019-01-08T03:22:37.103Z,99725.77
2019-01-08T03:25:06.828Z,99725.10
2019-01-08T03:27:36.476Z,99725.91
2019-01-08T03:30:06.569Z,99730.49
2019-01-08T03:32:36.201Z,99732.66
2019-01-08T03:35:06.267Z,99733.23
2019-01-08T03:37:35.933Z,99731.22
2019-01-08T03:40:06.029Z,99730.91
2019-01-08T03:42:35.661Z,99726.80
2019-01-08T03:45:25.844Z,99728.11
2019-01-08T03:48:36.773Z,99727.81
2019-01-08T03:51:06.462Z,99728.71
2019-01-08T03:53:36.100Z,99728.32
2019-01-08T03:56:05.754Z,99735.05
2019-01-08T03:58:35.387Z,99729.02
2019-01-08T04:01:05.074Z,99737.12
2019-01-08T04:03:34.822Z,99727.34
2019-01-08T04:06:04.510Z,99727.58
2019-01-08T04:08:34.130Z,99727.86
2019-01-08T04:11:03.890Z,99732.49
2019-01-08T04:13:33.522Z,99723.09
2019-01-08T04:16:03.184Z,99729.34
2019-01-08T04:18:32.883Z,99721.19
2019-01-08T04:21:02.473Z,99719.55
2019-01-08T04:23:32.136Z,99723.56
2019-01-08T04:26:01.759Z,99721.31
2019-01-08T04:28:31.454Z,99723.33
2019-01-08T04:31:01.097Z,99726.80
2019-01-08T04:33:30.850Z,99721.47
2019-01-08T04:36:00.494Z,99722.39
2019-01-08T04:38:30.161Z,99718.80
2019-01-08T04:40:59.839Z,99715.75
2019-01-08T04:43:29.464Z,99715.41
2019-01-08T04:45:59.168Z,99713.17
2019-01-08T04:48:29.655Z,99721.41
2019-01-08T04:50:59.450Z,99715.59
2019-01-08T04:53:29.109Z,99708.47
2019-01-08T04:55:59.463Z,99703.11
2019-01-08T04:58:29.191Z,99696.41
2019-01-08T05:00:58.886Z,99708.16
2019-01-08T05:03:28.525Z,99703.53
2019-01-08T05:05:58.153Z,99705.20
2019-01-08T05:08:27.801Z,99705.66
2019-01-08T05:10:57.454Z,99716.92
2019-01-08T05:13:27.083Z,99711.76
2019-01-08T05:15:56.720Z,99711.31
2019-01-08T05:18:26.451Z,99705.09
2019-01-08T05:20:56.147Z,99625.55
2019-01-08T05:23:25.805Z,99714.91
2019-01-08T05:25:55.414Z,99717.03
2019-01-08T05:28:25.104Z,99713.75
2019-01-08T05:30:54.756Z,99712.58
2019-01-08T05:33:24.444Z,99525.48
2019-01-08T05:35:54.123Z,99716.26
2019-01-08T05:38:23.742Z,99711.26
2019-01-08T05:40:53.408Z,99719.00
2019-01-08T05:43:23.089Z,99710.82
2019-01-08T05:45:52.810Z,99710.52
2019-01-08T05:48:22.427Z,99706.20
2019-01-08T05:50:52.103Z,99698.94
2019-01-08T05:53:21.775Z,99699.70
2019-01-08T05:55:51.438Z,99695.78
2019-01-08T05:58:21.116Z,99700.25
2019-01-08T06:00:50.724Z,99705.16
2019-01-08T06:03:20.385Z,99704.72
2019-01-08T06:05:49.982Z,99692.53
2019-01-08T06:08:19.651Z,99698.51
2019-01-08T06:10:49.794Z,99689.23
2019-01-08T06:13:19.368Z,99683.16
2019-01-08T06:15:49.035Z,99687.70
2019-01-08T06:18:18.647Z,99693.80
2019-01-08T06:20:48.360Z,99690.91
2019-01-08T06:23:17.998Z,99693.91
2019-01-08T06:25:47.639Z,99693.22
2019-01-08T06:28:17.266Z,99701.59
2019-01-08T06:30:47.015Z,99693.39
2019-01-08T06:33:16.696Z,99692.88
2019-01-08T06:35:46.337Z,99699.84
2019-01-08T06:38:15.922Z,99693.67
2019-01-08T06:40:45.571Z,99689.84
2019-01-08T06:43:15.187Z,99699.84
2019-01-08T06:45:44.804Z,99689.63
2019-01-08T06:48:14.476Z,99690.73
2019-01-08T06:50:44.132Z,99688.34
2019-01-08T06:53:13.774Z,99684.52
2019-01-08T06:55:43.462Z,99684.70
2019-01-08T06:58:13.140Z,99677.41
2019-01-08T07:00:42.756Z,99683.72
2019-01-08T07:03:12.432Z,99676.80
2019-01-08T07:05:42.031Z,99690.31
2019-01-08T07:08:11.658Z,99674.59
2019-01-08T07:10:41.304Z,99672.49
2019-01-08T07:13:10.932Z,99674.87
2019-01-08T07:15:40.566Z,99670.86
2019-01-08T07:18:10.197Z,99666.17
2019-01-08T07:20:39.843Z,99664.66
2019-01-08T07:23:09.498Z,99664.33
2019-01-08T07:25:42.262Z,99668.19
2019-01-08T07:28:10.528Z,99662.75
2019-01-08T07:30:41.651Z,99665.84
2019-01-08T07:33:11.572Z,99663.02
2019-01-08T07:35:41.195Z,99650.34
2019-01-08T07:38:10.832Z,99647.59
2019-01-08T07:40:41.512Z,99640.48
2019-01-08T07:43:11.821Z,99643.10
2019-01-08T07:45:41.452Z,99637.02
2019-01-08T07:48:11.059Z,99637.44
2019-01-08T07:50:40.701Z,99630.41
2019-01-08T07:53:10.372Z,99630.46
2019-01-08T07:55:40.042Z,99633.61
2019-01-08T07:58:09.635Z,99620.77
2019-01-08T08:00:39.103Z,99619.04
2019-01-08T08:03:08.730Z,99628.27
2019-01-08T08:05:38.368Z,99615.63
2019-01-08T08:08:08.106Z,99608.07
2019-01-08T08:10:37.796Z,99615.42
2019-01-08T08:13:07.443Z,99607.22
2019-01-08T08:15:37.187Z,99600.91
2019-01-08T08:18:06.799Z,99602.35
2019-01-08T08:20:36.453Z,99609.00
2019-01-08T08:23:06.090Z,99601.75
2019-01-08T08:25:35.729Z,99601.76
2019-01-08T08:28:05.365Z,99590.01
2019-01-08T08:30:34.963Z,99592.84
2019-01-08T08:33:04.689Z,99590.24
2019-01-08T08:35:34.387Z,99595.66
2019-01-08T08:38:03.957Z,99581.17
2019-01-08T08:40:33.560Z,99575.83
2019-01-08T08:43:03.279Z,99569.59
2019-01-08T08:45:32.986Z,99567.41
2019-01-08T08:48:04.715Z,99567.78
2019-01-08T08:50:35.372Z,99568.80
2019-01-08T08:53:05.676Z,99561.92
2019-01-08T08:55:35.378Z,99560.38
2019-01-08T08:58:05.011Z,99566.03
2019-01-08T09:00:34.730Z,99563.64
2019-01-08T09:03:04.638Z,99563.10
2019-01-08T09:05:34.858Z,99555.05
2019-01-08T09:08:05.108Z,99552.73
2019-01-08T09:10:35.163Z,99543.19
2019-01-08T09:13:04.818Z,99541.79
2019-01-08T09:15:35.506Z,99531.69
2019-01-08T09:18:05.375Z,99530.53
2019-01-08T09:20:35.127Z,99523.38
2019-01-08T09:23:04.785Z,99513.70
2019-01-08T09:25:34.463Z,99319.84
2019-01-08T09:28:04.254Z,99511.53
2019-01-08T09:30:34.034Z,99502.62
2019-01-08T09:33:03.690Z,99490.19
2019-01-08T09:35:33.383Z,99486.58
2019-01-08T09:38:03.063Z,99486.59
2019-01-08T09:40:32.935Z,99476.41
2019-01-08T09:43:02.602Z,99472.95
2019-01-08T09:45:32.318Z,99473.75
2019-01-08T09:48:01.996Z,99457.81
2019-01-08T09:50:31.807Z,99457.56
2019-01-08T09:53:01.481Z,99442.41
2019-01-08T09:55:31.113Z,99438.72
2019-01-08T09:58:00.965Z,99432.02
2019-01-08T10:00:30.565Z,99420.95
2019-01-08T10:03:00.255Z,99417.88
2019-01-08T10:05:30.010Z,99413.53
2019-01-08T10:07:59.634Z,99404.39
2019-01-08T10:10:29.441Z,99399.39
2019-01-08T10:12:59.003Z,99394.13
2019-01-08T10:15:29.237Z,99388.27
2019-01-08T10:17:59.077Z,99382.87
2019-01-08T10:20:28.803Z,99370.67
2019-01-08T10:22:58.422Z,99377.17
2019-01-08T10:25:28.087Z,99373.80
2019-01-08T10:27:57.714Z,99363.31
2019-01-08T10:30:27.326Z,99357.09
2019-01-08T10:32:57.229Z,99348.30
2019-01-08T10:35:26.955Z,99339.48
2019-01-08T10:37:57.618Z,99340.48
2019-01-08T10:40:27.316Z,99334.83
2019-01-08T10:42:57.199Z,99322.37
2019-01-08T10:45:27.061Z,99083.23
2019-01-08T10:47:56.889Z,99314.75
2019-01-08T10:50:26.524Z,99306.66
2019-01-08T10:52:56.142Z,99296.81
2019-01-08T10:55:25.919Z,99290.39
2019-01-08T10:57:55.837Z,99291.06
2019-01-08T11:00:25.487Z,99284.95
2019-01-08T11:02:55.396Z,99281.56
2019-01-08T11:05:25.809Z,99266.91
2019-01-08T11:07:56.793Z,99251.94
2019-01-08T11:10:27.421Z,99251.15
2019-01-08T11:12:57.448Z,99245.70
2019-01-08T11:15:27.723Z,99239.11
2019-01-08T11:17:57.742Z,99232.50
2019-01-08T11:20:27.563Z,99229.36
2019-01-08T11:22:57.333Z,99215.66
2019-01-08T11:25:27.301Z,99206.61
2019-01-08T11:28:18.040Z,99197.53
2019-01-08T11:31:04.442Z,99193.56
2019-01-08T11:33:34.071Z,99180.39
2019-01-08T11:38:38.384Z,99178.79
2019-01-08T11:41:08.145Z,99169.55
2019-01-08T11:43:37.750Z,99161.61
2019-01-08T11:46:07.550Z,99158.91
2019-01-08T11:48:37.260Z,99155.98
2019-01-08T11:51:06.950Z,99156.30
2019-01-08T11:53:38.442Z,98987.94
2019-01-08T11:56:08.248Z,99147.51
2019-01-08T12:02:12.870Z,98888.13
2019-01-08T12:04:43.148Z,99134.63
2019-01-08T12:07:13.510Z,99125.24
2019-01-08T12:09:45.407Z,99127.29
2019-01-08T12:12:15.212Z,99129.31
2019-01-08T12:14:45.130Z,99117.27
2019-01-08T12:17:15.084Z,99110.51
2019-01-08T12:19:56.906Z,99106.05
2019-01-08T12:22:26.862Z,99102.25
2019-01-08T12:24:58.539Z,99102.94
2019-01-08T12:27:29.051Z,99098.16
2019-01-08T12:29:58.999Z,99090.15
2019-01-08T12:32:28.858Z,99090.38
2019-01-08T12:34:58.537Z,99088.34
2019-01-08T12:37:28.298Z,99081.25
2019-01-08T12:39:57.925Z,99071.84
2019-01-08T12:42:27.657Z,99077.66
2019-01-08T12:44:57.515Z,99075.56
2019-01-08T12:47:27.209Z,99070.41
2019-01-08T12:49:56.848Z,99069.11
2019-01-08T12:52:26.569Z,99071.63
2019-01-08T12:54:56.304Z,99073.56
2019-01-08T12:57:26.287Z,99070.55
2019-01-08T12:59:56.264Z,99064.63
2019-01-08T13:02:25.964Z,99061.63
2019-01-08T13:04:55.658Z,99056.28
2019-01-08T13:07:25.404Z,99063.39
2019-01-08T13:09:55.332Z,99053.08
2019-01-08T13:12:25.031Z,99056.33
2019-01-08T13:14:54.795Z,99055.71
2019-01-08T13:17:24.463Z,99052.26
2019-01-08T13:19:54.202Z,99050.03
2019-01-08T13:22:23.848Z,99041.10
2019-01-08T13:24:53.454Z,99037.73
2019-01-08T13:27:23.109Z,98801.19
2019-01-08T13:33:07.521Z,99041.53
2019-01-08T13:36:19.793Z,99044.32
2019-01-08T13:38:49.541Z,99038.66
2019-01-08T13:41:19.135Z,99029.72
2019-01-08T13:43:48.718Z,99031.00
2019-01-08T13:46:18.349Z,98917.59
2019-01-08T13:48:47.967Z,99025.31
2019-01-08T13:51:17.550Z,99020.11
2019-01-08T13:53:47.232Z,99020.91
2019-01-08T13:56:16.825Z,99017.92
2019-01-08T13:58:46.420Z,99018.00
2019-01-08T14:01:16.078Z,99013.00
2019-01-08T14:03:45.724Z,99017.85
2019-01-08T14:06:15.350Z,99015.93
2019-01-08T14:08:45.110Z,99013.19
2019-01-08T14:11:14.817Z,99007.00
2019-01-08T14:13:44.441Z,99015.00
2019-01-08T14:16:14.220Z,99010.37
2019-01-08T14:18:43.821Z,99001.84
2019-01-08T14:21:13.485Z,99006.62
2019-01-08T14:23:43.201Z,99005.73
2019-01-08T14:26:12.853Z,99005.48
2019-01-08T14:28:42.460Z,99001.27
2019-01-08T14:31:12.313Z,98909.55
2019-01-08T14:33:41.982Z,98995.77
2019-01-08T14:36:11.625Z,99002.27
2019-01-08T14:38:41.391Z,99002.53
2019-01-08T14:41:11.046Z,99006.66
2019-01-08T14:43:40.681Z,99006.89
2019-01-08T14:46:10.445Z,99006.32
2019-01-08T14:48:40.034Z,98972.44
2019-01-08T14:51:09.685Z,99007.82
2019-01-08T14:53:39.344Z,99001.04
2019-01-08T14:56:08.979Z,99010.57
2019-01-08T14:58:38.638Z,98998.41
2019-01-08T15:01:08.624Z,99000.23
2019-01-08T15:03:38.227Z,99000.59
2019-01-08T15:06:07.998Z,99002.33
2019-01-08T15:08:37.729Z,98994.85
2019-01-08T15:11:07.334Z,98988.27
2019-01-08T15:13:37.016Z,98998.42
2019-01-08T15:16:06.773Z,98994.71
2019-01-08T15:18:36.415Z,98995.30
2019-01-08T15:21:06.069Z,98987.61
2019-01-08T15:23:35.799Z,98988.13
2019-01-08T15:26:05.451Z,98984.17
2019-01-08T15:28:35.114Z,98974.16
2019-01-08T15:31:04.781Z,98971.37
2019-01-08T15:33:34.438Z,98971.03
2019-01-08T15:36:04.101Z,98963.51
2019-01-08T15:38:33.755Z,98965.12
2019-01-08T15:41:03.425Z,98960.49
2019-01-08T15:43:33.118Z,98962.68
2019-01-08T15:46:02.899Z,98960.12
2019-01-08T16:24:50.399Z,98926.26
2019-01-08T16:31:00.630Z,98908.20
2019-01-08T16:33:30.237Z,98902.92
2019-01-08T16:35:59.872Z,98894.14
2019-01-08T16:38:29.463Z,98896.64
2019-01-08T16:40:59.123Z,98894.99
2019-01-08T16:43:28.762Z,98893.89
2019-01-08T16:58:00.832Z,98890.25
2019-01-08T17:05:12.100Z,98887.22
2019-01-08T17:11:55.183Z,98893.72
2019-01-08T17:26:22.147Z,98917.01
2019-01-08T17:36:29.166Z,98927.48
2019-01-08T17:39:19.117Z,98927.40
2019-01-08T17:42:30.044Z,98926.85
2019-01-08T17:47:39.981Z,98939.16
2019-01-08T17:50:14.555Z,98835.59
2019-01-08T17:53:48.156Z,98936.65
2019-01-08T17:56:44.453Z,98935.48
2019-01-08T18:02:54.690Z,98925.30
2019-01-08T18:05:24.378Z,98916.11
2019-01-08T18:07:53.997Z,98914.53
2019-01-08T18:10:23.750Z,98917.56
2019-01-08T18:12:53.412Z,98916.00
2019-01-08T18:15:23.185Z,98922.39
2019-01-08T18:17:52.811Z,98920.37
2019-01-08T18:20:22.456Z,98918.23
2019-01-08T18:22:52.073Z,98921.52
2019-01-08T18:25:21.731Z,98924.50
2019-01-08T18:27:51.461Z,98931.38
2019-01-08T18:30:21.123Z,98927.69
2019-01-08T18:32:50.828Z,98928.66
2019-01-08T18:35:20.540Z,98929.33
2019-01-08T18:37:50.163Z,98923.72
2019-01-08T18:40:19.798Z,98920.17
2019-01-08T18:42:49.495Z,98920.81
2019-01-08T18:45:19.211Z,98917.21
2019-01-08T18:47:48.983Z,98915.86
2019-01-08T18:50:18.690Z,98910.71
2019-01-08T18:52:48.448Z,98900.62
2019-01-08T18:55:18.105Z,98896.82
2019-01-08T18:57:47.712Z,98813.72
2019-01-08T19:00:17.361Z,98883.84
2019-01-08T19:02:47.063Z,98884.06
2019-01-08T19:05:16.864Z,98879.28
2019-01-08T19:07:46.527Z,98884.62
2019-01-08T19:10:16.831Z,98887.83
2019-01-08T19:12:46.648Z,98877.69
2019-01-08T19:15:17.087Z,98877.23
2019-01-08T19:17:46.800Z,98880.41
2019-01-08T19:20:16.801Z,98877.33
2019-01-08T19:22:46.553Z,98879.59
2019-01-08T19:25:16.373Z,98875.64
2019-01-08T19:27:46.033Z,98869.48
2019-01-08T19:30:15.717Z,98867.85
2019-01-08T19:32:45.391Z,98859.32
2019-01-08T19:35:15.072Z,98861.53
2019-01-08T19:37:44.745Z,98860.91
2019-01-08T19:40:14.479Z,98854.58
2019-01-08T19:42:44.151Z,98855.22
2019-01-08T19:45:14.051Z,98853.36
2019-01-08T19:47:43.770Z,98850.17
2019-01-08T20:08:11.589Z,98838.88
2019-01-08T20:11:46.372Z,98832.22
2019-01-08T20:25:57.656Z,98827.66
2019-01-08T20:31:59.412Z,98818.79
2019-01-08T20:34:29.013Z,98827.56
2019-01-08T20:36:58.719Z,98827.73
2019-01-08T20:39:28.367Z,98811.15
2019-01-08T20:41:58.060Z,98800.78
2019-01-08T20:44:27.769Z,98805.21
2019-01-08T20:46:57.425Z,98796.89
2019-01-08T20:49:27.122Z,98796.80
2019-01-08T20:51:56.755Z,98801.00
2019-01-08T20:54:26.463Z,98803.61
2019-01-08T20:56:56.083Z,98797.70
2019-01-08T20:59:25.763Z,98797.44
2019-01-08T21:01:55.380Z,98794.87
2019-01-08T21:04:25.058Z,98782.31
2019-01-08T21:06:54.869Z,98773.26
2019-01-08T21:09:24.557Z,98770.78
2019-01-08T21:11:54.186Z,98764.12
2019-01-08T21:14:23.899Z,98764.53
2019-01-08T21:16:53.513Z,98769.47
2019-01-08T21:19:23.159Z,98773.80
2019-01-08T21:21:52.981Z,98777.77
2019-01-08T21:24:28.517Z,98776.66
2019-01-08T21:26:54.169Z,98781.31
2019-01-08T21:29:23.918Z,98775.32
2019-01-08T21:31:53.556Z,98774.58
2019-01-08T21:34:23.174Z,98771.08
2019-01-08T21:36:52.780Z,98770.12
2019-01-08T21:39:22.494Z,98763.08
2019-01-08T21:41:52.216Z,98766.20
2019-01-08T21:44:21.883Z,98756.04
2019-01-08T21:46:51.588Z,98764.75
2019-01-08T21:49:21.265Z,98774.36
2019-01-08T21:51:50.895Z,98763.23
2019-01-08T21:54:20.532Z,98761.91
2019-01-08T21:56:50.213Z,98763.09
2019-01-08T21:59:19.840Z,98755.81
2019-01-08T22:01:49.466Z,98749.42
2019-01-08T22:04:19.113Z,98755.49
2019-01-08T22:06:48.771Z,98748.27
2019-01-08T22:09:18.518Z,98745.87
2019-01-08T22:11:48.346Z,98748.84
2019-01-08T22:14:17.963Z,98749.82
2019-01-08T22:16:47.648Z,98743.73
2019-01-08T22:19:17.261Z,98743.37
2019-01-08T22:21:47.087Z,98741.27
2019-01-08T22:24:16.785Z,98741.84
2019-01-08T22:26:46.426Z,98734.78
2019-01-08T22:29:16.044Z,98732.19
2019-01-08T22:31:45.700Z,98735.57
2019-01-08T22:34:15.275Z,98726.06
2019-01-08T22:37:11.302Z,98718.13
2019-01-08T22:39:40.936Z,98715.91
2019-01-08T22:42:10.755Z,98715.81
2019-01-08T22:44:40.534Z,98709.77
2019-01-08T22:47:10.241Z,98700.73
2019-01-08T22:49:39.911Z,98697.20
2019-01-08T22:52:09.608Z,98700.16
2019-01-08T22:54:39.259Z,98700.32
2019-01-08T22:57:08.860Z,98703.63
2019-01-08T23:02:53.461Z,98706.04
2019-01-08T23:05:23.276Z,98709.69
2019-01-08T23:08:32.029Z,98707.45
2019-01-08T23:11:01.915Z,98703.81
2019-01-08T23:14:10.814Z,98702.45
2019-01-08T23:16:40.794Z,98699.91
2019-01-08T23:19:10.541Z,98701.27
2019-01-08T23:21:40.326Z,98704.46
2019-01-08T23:24:10.107Z,98709.48
2019-01-08T23:26:39.874Z,98703.98
2019-01-08T23:29:09.613Z,98601.16
2019-01-08T23:31:39.347Z,98703.11
2019-01-08T23:34:08.951Z,98700.61
2019-01-08T23:36:38.597Z,98699.95
2019-01-08T23:39:09.245Z,98696.39
2019-01-08T23:41:38.821Z,98691.84
2019-01-08T23:44:08.507Z,98687.98
2019-01-08T23:46:38.360Z,98680.94
2019-01-08T23:49:07.978Z,98673.45
2019-01-08T23:51:37.613Z,98669.49
